Time;durP1;ratioP1;P1;durP2;ratioP2;P2;SDS_P1;SDS_P2;PMS_P1;PMS_P2;Temp;Humidity;BMP_temperature;BMP_pressure;BME280_temperature;BME280_humidity;BME280_pressure;Samples;Min_cycle;Max_cycle;Signal;HPM_P1;HPM_P2
2022/11/17 00:00:00;;;;;;;1.0;1.0;;;;;;;9.4;100.0;98700;;;;
2022/11/17 00:01:08;;;;;;;1.0;1.0;;;;;;;9.4;100.0;98700;;;;
2022/11/17 00:02:00;;;;;;;1.0;1.0;;;;;;;9.4;100.0;98700;;;;
2022/11/17 00:03:00;;;;;;;1.0;1.0;;;;;;;9.4;100.0;98690;;;;
2022/11/17 00:04:00;;;;;;;1.0;1.0;;;;;;;9.4;100.0;98690;;;;
2022/11/17 00:05:00;;;;;;;1.0;1.0;;;;;;;9.4;100.0;98680;;;;
2022/11/17 00:06:02;;;;;;;1.0;1.0;;;;;;;9.4;100.0;98680;;;;
2022/11/17 00:07:00;;;;;;;1.0;1.0;;;;;;;9.4;100.0;98680;;;;
2022/11/17 00:08:00;;;;;;;1.0;1.0;;;;;;;9.4;100.0;98680;;;;
2022/11/17 00:09:00;;;;;;;1.0;1.0;;;;;;;9.4;100.0;98670;;;;
2022/11/17 00:10:00;;;;;;;1.0;1.0;;;;;;;9.4;100.0;98670;;;;
2022/11/17 00:11:00;;;;;;;1.0;1.0;;;;;;;9.4;100.0;98660;;;;
2022/11/17 00:15:00;;;;;;;1.1;1.1;;;;;;;9.4;100.0;98650;;;;
2022/11/17 00:16:00;;;;;;;1.1;1.1;;;;;;;9.4;100.0;98650;;;;
2022/11/17 00:17:00;;;;;;;1.1;1.1;;;;;;;9.4;100.0;98650;;;;
2022/11/17 00:21:17;;;;;;;1.1;1.1;;;;;;;9.4;100.0;98650;;;;
2022/11/17 00:22:00;;;;;;;1.1;1.1;;;;;;;9.5;100.0;98630;;;;
2022/11/17 00:23:00;;;;;;;1.1;1.1;;;;;;;9.5;100.0;98620;;;;
2022/11/17 00:24:00;;;;;;;1.1;1.1;;;;;;;9.5;100.0;98620;;;;
2022/11/17 00:25:00;;;;;;;1.1;1.1;;;;;;;9.5;100.0;98610;;;;
2022/11/17 00:26:00;;;;;;;1.1;1.1;;;;;;;9.5;100.0;98610;;;;
2022/11/17 00:27:01;;;;;;;1.1;1.1;;;;;;;9.5;100.0;98610;;;;
2022/11/17 00:28:00;;;;;;;1.1;1.1;;;;;;;9.5;100.0;98610;;;;
2022/11/17 00:29:01;;;;;;;1.1;1.1;;;;;;;9.5;100.0;98610;;;;
2022/11/17 00:30:00;;;;;;;1.1;1.1;;;;;;;9.5;100.0;98610;;;;
2022/11/17 00:34:07;;;;;;;1.1;1.1;;;;;;;9.5;100.0;98600;;;;
2022/11/17 00:35:00;;;;;;;0.8;0.8;;;;;;;9.6;100.0;98600;;;;
2022/11/17 00:36:00;;;;;;;0.8;0.8;;;;;;;9.6;100.0;98600;;;;
2022/11/17 00:37:00;;;;;;;0.8;0.8;;;;;;;9.6;100.0;98590;;;;
2022/11/17 00:39:00;;;;;;;0.8;0.8;;;;;;;9.6;100.0;98590;;;;
2022/11/17 00:40:01;;;;;;;0.8;0.8;;;;;;;9.6;100.0;98590;;;;
2022/11/17 00:41:00;;;;;;;0.8;0.8;;;;;;;9.6;100.0;98580;;;;
2022/11/17 00:42:00;;;;;;;0.8;0.8;;;;;;;9.6;100.0;98580;;;;
2022/11/17 00:43:00;;;;;;;0.8;0.8;;;;;;;9.7;100.0;98560;;;;
2022/11/17 00:44:00;;;;;;;0.8;0.8;;;;;;;9.7;100.0;98560;;;;
2022/11/17 00:45:00;;;;;;;0.8;0.8;;;;;;;9.6;100.0;98570;;;;
2022/11/17 00:46:00;;;;;;;0.8;0.8;;;;;;;9.6;100.0;98570;;;;
2022/11/17 00:47:00;;;;;;;0.8;0.8;;;;;;;9.6;100.0;98570;;;;
2022/11/17 00:48:00;;;;;;;0.8;0.8;;;;;;;9.6;100.0;98570;;;;
2022/11/17 00:49:00;;;;;;;0.8;0.8;;;;;;;9.5;100.0;98560;;;;
2022/11/17 00:50:00;;;;;;;0.8;0.8;;;;;;;9.5;100.0;98560;;;;
2022/11/17 00:51:02;;;;;;;0.8;0.8;;;;;;;9.6;100.0;98540;;;;
2022/11/17 00:52:00;;;;;;;0.8;0.8;;;;;;;9.6;100.0;98540;;;;
2022/11/17 00:53:00;;;;;;;0.8;0.8;;;;;;;9.6;100.0;98540;;;;
2022/11/17 00:54:00;;;;;;;0.8;0.8;;;;;;;9.6;100.0;98540;;;;
2022/11/17 00:55:00;;;;;;;0.9;0.9;;;;;;;9.6;100.0;98540;;;;
2022/11/17 00:56:00;;;;;;;0.9;0.9;;;;;;;9.6;100.0;98540;;;;
2022/11/17 00:57:00;;;;;;;0.9;0.9;;;;;;;9.6;100.0;98540;;;;
2022/11/17 00:58:00;;;;;;;0.9;0.9;;;;;;;9.6;100.0;98540;;;;
2022/11/17 00:59:00;;;;;;;0.9;0.9;;;;;;;9.6;100.0;98530;;;;
2022/11/17 01:00:00;;;;;;;0.9;0.9;;;;;;;9.6;100.0;98530;;;;
2022/11/17 01:01:00;;;;;;;0.9;0.9;;;;;;;9.6;100.0;98520;;;;
2022/11/17 01:02:00;;;;;;;0.9;0.9;;;;;;;9.6;100.0;98520;;;;
2022/11/17 01:03:00;;;;;;;0.9;0.9;;;;;;;9.6;100.0;98520;;;;
2022/11/17 01:04:03;;;;;;;0.9;0.9;;;;;;;9.6;100.0;98520;;;;
2022/11/17 01:05:00;;;;;;;0.9;0.9;;;;;;;9.6;100.0;98510;;;;
2022/11/17 01:06:04;;;;;;;0.9;0.9;;;;;;;9.6;100.0;98510;;;;
2022/11/17 01:07:00;;;;;;;0.9;0.9;;;;;;;9.6;100.0;98520;;;;
2022/11/17 01:08:00;;;;;;;0.9;0.9;;;;;;;9.6;100.0;98520;;;;
2022/11/17 01:09:01;;;;;;;0.9;0.9;;;;;;;9.7;100.0;98520;;;;
2022/11/17 01:10:00;;;;;;;0.9;0.9;;;;;;;9.7;100.0;98520;;;;
2022/11/17 01:11:09;;;;;;;0.9;0.9;;;;;;;9.7;100.0;98520;;;;
2022/11/17 01:12:00;;;;;;;0.9;0.9;;;;;;;9.7;100.0;98520;;;;
2022/11/17 01:13:00;;;;;;;0.9;0.9;;;;;;;9.7;100.0;98520;;;;
2022/11/17 01:14:00;;;;;;;0.9;0.9;;;;;;;9.7;100.0;98520;;;;
2022/11/17 01:15:00;;;;;;;1.0;1.0;;;;;;;9.7;100.0;98520;;;;
2022/11/17 01:16:01;;;;;;;1.0;1.0;;;;;;;9.7;100.0;98520;;;;
2022/11/17 01:17:00;;;;;;;1.0;1.0;;;;;;;9.7;100.0;98520;;;;
2022/11/17 01:18:00;;;;;;;1.0;1.0;;;;;;;9.7;100.0;98520;;;;
2022/11/17 01:19:00;;;;;;;1.0;1.0;;;;;;;9.7;100.0;98510;;;;
2022/11/17 01:20:00;;;;;;;1.0;1.0;;;;;;;9.7;100.0;98510;;;;
2022/11/17 01:21:10;;;;;;;1.0;1.0;;;;;;;9.7;100.0;98490;;;;
2022/11/17 01:22:00;;;;;;;1.0;1.0;;;;;;;9.7;100.0;98490;;;;
2022/11/17 01:23:00;;;;;;;1.0;1.0;;;;;;;9.8;100.0;98520;;;;
2022/11/17 01:24:00;;;;;;;1.0;1.0;;;;;;;9.8;100.0;98520;;;;
2022/11/17 01:25:00;;;;;;;1.0;1.0;;;;;;;9.8;100.0;98530;;;;
2022/11/17 01:26:01;;;;;;;1.0;1.0;;;;;;;9.8;100.0;98530;;;;
2022/11/17 01:27:00;;;;;;;1.0;1.0;;;;;;;9.8;100.0;98520;;;;
2022/11/17 01:28:00;;;;;;;1.0;1.0;;;;;;;9.8;100.0;98520;;;;
2022/11/17 01:29:01;;;;;;;1.0;1.0;;;;;;;9.7;100.0;98530;;;;
2022/11/17 01:30:00;;;;;;;1.0;1.0;;;;;;;9.7;100.0;98530;;;;
2022/11/17 01:31:02;;;;;;;1.0;1.0;;;;;;;9.8;100.0;98520;;;;
2022/11/17 01:32:00;;;;;;;1.0;1.0;;;;;;;9.8;100.0;98520;;;;
2022/11/17 01:33:00;;;;;;;1.0;1.0;;;;;;;9.8;100.0;98520;;;;
2022/11/17 01:34:00;;;;;;;1.0;1.0;;;;;;;9.8;100.0;98520;;;;
2022/11/17 01:35:00;;;;;;;1.0;1.0;;;;;;;9.8;100.0;98510;;;;
2022/11/17 01:36:01;;;;;;;1.0;1.0;;;;;;;9.8;100.0;98510;;;;
2022/11/17 01:38:00;;;;;;;1.0;1.0;;;;;;;9.8;100.0;98510;;;;
2022/11/17 01:39:00;;;;;;;1.0;1.0;;;;;;;9.8;100.0;98510;;;;
2022/11/17 01:40:00;;;;;;;1.0;1.0;;;;;;;9.8;100.0;98510;;;;
2022/11/17 01:41:00;;;;;;;1.0;1.0;;;;;;;9.8;100.0;98480;;;;
2022/11/17 01:42:02;;;;;;;1.0;1.0;;;;;;;9.8;100.0;98480;;;;
2022/11/17 01:43:00;;;;;;;1.0;1.0;;;;;;;9.8;100.0;98490;;;;
2022/11/17 01:44:10;;;;;;;1.0;1.0;;;;;;;9.8;100.0;98490;;;;
2022/11/17 01:45:00;;;;;;;1.0;1.0;;;;;;;9.9;100.0;98480;;;;
2022/11/17 01:46:00;;;;;;;1.0;1.0;;;;;;;9.9;100.0;98480;;;;
2022/11/17 01:47:01;;;;;;;1.0;1.0;;;;;;;9.9;100.0;98490;;;;
2022/11/17 01:48:01;;;;;;;1.0;1.0;;;;;;;9.9;100.0;98490;;;;
2022/11/17 01:49:03;;;;;;;1.0;1.0;;;;;;;10.0;100.0;98480;;;;
2022/11/17 01:50:03;;;;;;;1.0;1.0;;;;;;;10.0;100.0;98480;;;;
2022/11/17 01:51:00;;;;;;;1.0;1.0;;;;;;;10.1;100.0;98480;;;;
2022/11/17 01:52:03;;;;;;;1.0;1.0;;;;;;;10.1;100.0;98480;;;;
2022/11/17 01:53:01;;;;;;;1.0;1.0;;;;;;;10.1;100.0;98480;;;;
2022/11/17 01:54:00;;;;;;;1.0;1.0;;;;;;;10.1;100.0;98480;;;;
2022/11/17 01:55:00;;;;;;;1.0;1.0;;;;;;;10.1;100.0;98470;;;;
2022/11/17 01:56:03;;;;;;;1.0;1.0;;;;;;;10.1;100.0;98470;;;;
2022/11/17 01:57:04;;;;;;;1.0;1.0;;;;;;;10.1;100.0;98470;;;;
2022/11/17 01:58:03;;;;;;;1.0;1.0;;;;;;;10.1;100.0;98470;;;;
2022/11/17 01:59:05;;;;;;;1.0;1.0;;;;;;;10.1;100.0;98460;;;;
2022/11/17 02:00:02;;;;;;;1.0;1.0;;;;;;;10.1;100.0;98460;;;;
2022/11/17 02:01:00;;;;;;;1.0;1.0;;;;;;;10.1;100.0;98470;;;;
2022/11/17 02:02:00;;;;;;;1.0;1.0;;;;;;;10.1;100.0;98470;;;;
2022/11/17 02:03:00;;;;;;;1.0;1.0;;;;;;;10.2;100.0;98460;;;;
2022/11/17 02:04:00;;;;;;;1.0;1.0;;;;;;;10.2;100.0;98460;;;;
2022/11/17 02:05:08;;;;;;;1.0;1.0;;;;;;;10.3;100.0;98450;;;;
2022/11/17 02:06:05;;;;;;;1.0;1.0;;;;;;;10.3;100.0;98450;;;;
2022/11/17 02:07:05;;;;;;;1.0;1.0;;;;;;;10.3;100.0;98450;;;;
2022/11/17 02:08:02;;;;;;;1.0;1.0;;;;;;;10.3;100.0;98450;;;;
2022/11/17 02:09:02;;;;;;;1.0;1.0;;;;;;;10.4;100.0;98460;;;;
2022/11/17 02:10:00;;;;;;;1.0;1.0;;;;;;;10.4;100.0;98460;;;;
2022/11/17 02:11:02;;;;;;;1.0;1.0;;;;;;;10.3;100.0;98450;;;;
2022/11/17 02:12:01;;;;;;;1.0;1.0;;;;;;;10.3;100.0;98450;;;;
2022/11/17 02:13:00;;;;;;;1.0;1.0;;;;;;;10.4;100.0;98450;;;;
2022/11/17 02:14:01;;;;;;;1.0;1.0;;;;;;;10.4;100.0;98450;;;;
2022/11/17 02:15:00;;;;;;;0.9;0.9;;;;;;;10.4;100.0;98450;;;;
2022/11/17 02:16:00;;;;;;;0.9;0.9;;;;;;;10.4;100.0;98450;;;;
2022/11/17 02:17:11;;;;;;;0.9;0.9;;;;;;;10.4;100.0;98450;;;;
2022/11/17 02:18:00;;;;;;;0.9;0.9;;;;;;;10.4;100.0;98450;;;;
2022/11/17 02:19:00;;;;;;;0.9;0.9;;;;;;;10.4;100.0;98450;;;;
2022/11/17 02:20:10;;;;;;;0.9;0.9;;;;;;;10.4;100.0;98450;;;;
2022/11/17 02:21:07;;;;;;;0.9;0.9;;;;;;;10.4;100.0;98440;;;;
2022/11/17 02:22:10;;;;;;;0.9;0.9;;;;;;;10.4;100.0;98440;;;;
2022/11/17 02:23:10;;;;;;;0.9;0.9;;;;;;;10.5;100.0;98440;;;;
2022/11/17 02:24:10;;;;;;;0.9;0.9;;;;;;;10.5;100.0;98440;;;;
2022/11/17 02:25:00;;;;;;;0.9;0.9;;;;;;;10.5;100.0;98440;;;;
2022/11/17 02:26:10;;;;;;;0.9;0.9;;;;;;;10.5;100.0;98440;;;;
2022/11/17 02:27:00;;;;;;;0.9;0.9;;;;;;;10.5;100.0;98440;;;;
2022/11/17 02:28:01;;;;;;;0.9;0.9;;;;;;;10.5;100.0;98440;;;;
2022/11/17 02:29:03;;;;;;;0.9;0.9;;;;;;;10.5;100.0;98440;;;;
2022/11/17 02:30:03;;;;;;;0.9;0.9;;;;;;;10.5;100.0;98440;;;;
2022/11/17 02:31:10;;;;;;;0.9;0.9;;;;;;;10.4;100.0;98430;;;;
2022/11/17 02:32:05;;;;;;;0.9;0.9;;;;;;;10.4;100.0;98430;;;;
2022/11/17 02:33:10;;;;;;;0.9;0.9;;;;;;;10.4;100.0;98440;;;;
2022/11/17 02:34:00;;;;;;;0.9;0.9;;;;;;;10.4;100.0;98440;;;;
2022/11/17 02:35:03;;;;;;;0.9;0.9;;;;;;;10.4;100.0;98440;;;;
2022/11/17 02:36:05;;;;;;;0.9;0.9;;;;;;;10.4;100.0;98440;;;;
2022/11/17 02:37:06;;;;;;;0.9;0.9;;;;;;;10.5;100.0;98440;;;;
2022/11/17 02:38:00;;;;;;;0.9;0.9;;;;;;;10.5;100.0;98440;;;;
2022/11/17 02:39:10;;;;;;;0.9;0.9;;;;;;;10.5;100.0;98430;;;;
2022/11/17 02:40:10;;;;;;;0.9;0.9;;;;;;;10.5;100.0;98430;;;;
2022/11/17 02:41:00;;;;;;;0.9;0.9;;;;;;;10.4;100.0;98420;;;;
2022/11/17 02:42:10;;;;;;;0.9;0.9;;;;;;;10.4;100.0;98420;;;;
2022/11/17 02:44:07;;;;;;;0.9;0.9;;;;;;;10.5;100.0;98420;;;;
2022/11/17 02:45:02;;;;;;;0.9;0.9;;;;;;;10.5;100.0;98410;;;;
2022/11/17 02:46:01;;;;;;;0.9;0.9;;;;;;;10.5;100.0;98410;;;;
2022/11/17 02:47:03;;;;;;;0.9;0.9;;;;;;;10.4;100.0;98410;;;;
2022/11/17 02:48:02;;;;;;;0.9;0.9;;;;;;;10.4;100.0;98410;;;;
2022/11/17 02:49:03;;;;;;;0.9;0.9;;;;;;;10.5;100.0;98420;;;;
2022/11/17 02:50:04;;;;;;;0.9;0.9;;;;;;;10.5;100.0;98420;;;;
2022/11/17 02:51:01;;;;;;;0.9;0.9;;;;;;;10.4;100.0;98410;;;;
2022/11/17 02:52:01;;;;;;;0.9;0.9;;;;;;;10.4;100.0;98410;;;;
2022/11/17 02:53:00;;;;;;;0.9;0.9;;;;;;;10.4;100.0;98410;;;;
2022/11/17 02:54:01;;;;;;;0.8;0.8;;;;;;;10.4;100.0;98410;;;;
2022/11/17 02:55:01;;;;;;;0.8;0.8;;;;;;;10.4;100.0;98390;;;;
2022/11/17 02:56:00;;;;;;;0.8;0.8;;;;;;;10.4;100.0;98390;;;;
2022/11/17 02:57:00;;;;;;;0.8;0.8;;;;;;;10.5;100.0;98400;;;;
2022/11/17 02:58:00;;;;;;;0.8;0.8;;;;;;;10.5;100.0;98400;;;;
2022/11/17 02:59:01;;;;;;;0.8;0.8;;;;;;;10.4;100.0;98400;;;;
2022/11/17 03:00:03;;;;;;;0.8;0.8;;;;;;;10.4;100.0;98400;;;;
2022/11/17 03:01:00;;;;;;;0.8;0.8;;;;;;;10.5;100.0;98400;;;;
2022/11/17 03:02:07;;;;;;;0.8;0.8;;;;;;;10.5;100.0;98400;;;;
2022/11/17 03:03:10;;;;;;;0.8;0.8;;;;;;;10.6;100.0;98390;;;;
2022/11/17 03:04:00;;;;;;;0.8;0.8;;;;;;;10.6;100.0;98390;;;;
2022/11/17 03:05:00;;;;;;;0.8;0.8;;;;;;;10.6;100.0;98400;;;;
2022/11/17 03:06:09;;;;;;;0.8;0.8;;;;;;;10.6;100.0;98400;;;;
2022/11/17 03:07:07;;;;;;;0.8;0.8;;;;;;;10.6;100.0;98370;;;;
2022/11/17 03:08:10;;;;;;;0.8;0.8;;;;;;;10.6;100.0;98370;;;;
2022/11/17 03:09:07;;;;;;;0.8;0.8;;;;;;;10.5;100.0;98370;;;;
2022/11/17 03:10:10;;;;;;;0.8;0.8;;;;;;;10.5;100.0;98370;;;;
2022/11/17 03:11:02;;;;;;;0.8;0.8;;;;;;;10.5;100.0;98350;;;;
2022/11/17 03:12:10;;;;;;;0.8;0.8;;;;;;;10.5;100.0;98350;;;;
2022/11/17 03:13:08;;;;;;;0.8;0.8;;;;;;;10.5;100.0;98350;;;;
2022/11/17 03:14:10;;;;;;;0.8;0.8;;;;;;;10.5;100.0;98350;;;;
2022/11/17 03:15:07;;;;;;;0.8;0.8;;;;;;;10.6;100.0;98330;;;;
2022/11/17 03:16:09;;;;;;;0.8;0.8;;;;;;;10.6;100.0;98330;;;;
2022/11/17 03:17:04;;;;;;;0.8;0.8;;;;;;;10.6;100.0;98340;;;;
2022/11/17 03:18:03;;;;;;;0.8;0.8;;;;;;;10.6;100.0;98340;;;;
2022/11/17 03:19:07;;;;;;;0.8;0.8;;;;;;;10.5;100.0;98320;;;;
2022/11/17 03:20:03;;;;;;;0.8;0.8;;;;;;;10.5;100.0;98320;;;;
2022/11/17 03:21:00;;;;;;;0.8;0.8;;;;;;;10.4;100.0;98330;;;;
2022/11/17 03:22:06;;;;;;;0.8;0.8;;;;;;;10.4;100.0;98330;;;;
2022/11/17 03:23:00;;;;;;;0.8;0.8;;;;;;;10.4;100.0;98330;;;;
2022/11/17 03:24:03;;;;;;;0.8;0.8;;;;;;;10.4;100.0;98330;;;;
2022/11/17 03:25:02;;;;;;;0.8;0.8;;;;;;;10.5;100.0;98330;;;;
2022/11/17 03:26:01;;;;;;;0.8;0.8;;;;;;;10.5;100.0;98330;;;;
2022/11/17 03:27:10;;;;;;;0.8;0.8;;;;;;;10.4;100.0;98330;;;;
2022/11/17 03:28:04;;;;;;;0.8;0.8;;;;;;;10.4;100.0;98330;;;;
2022/11/17 03:29:02;;;;;;;0.8;0.8;;;;;;;10.3;100.0;98320;;;;
2022/11/17 03:30:02;;;;;;;0.8;0.8;;;;;;;10.3;100.0;98320;;;;
2022/11/17 03:31:03;;;;;;;0.8;0.8;;;;;;;10.4;100.0;98330;;;;
2022/11/17 03:32:02;;;;;;;0.8;0.8;;;;;;;10.4;100.0;98330;;;;
2022/11/17 03:33:04;;;;;;;0.8;0.8;;;;;;;10.5;100.0;98320;;;;
2022/11/17 03:34:01;;;;;;;0.9;0.9;;;;;;;10.5;100.0;98320;;;;
2022/11/17 03:35:05;;;;;;;0.9;0.9;;;;;;;10.5;100.0;98320;;;;
2022/11/17 03:36:03;;;;;;;0.9;0.9;;;;;;;10.5;100.0;98320;;;;
2022/11/17 03:37:02;;;;;;;0.9;0.9;;;;;;;10.5;100.0;98320;;;;
2022/11/17 03:38:04;;;;;;;0.9;0.9;;;;;;;10.5;100.0;98320;;;;
2022/11/17 03:39:06;;;;;;;0.9;0.9;;;;;;;10.5;100.0;98310;;;;
2022/11/17 03:40:03;;;;;;;0.9;0.9;;;;;;;10.5;100.0;98310;;;;
2022/11/17 03:41:02;;;;;;;0.9;0.9;;;;;;;10.5;100.0;98310;;;;
2022/11/17 03:42:03;;;;;;;0.9;0.9;;;;;;;10.5;100.0;98310;;;;
2022/11/17 03:43:01;;;;;;;0.9;0.9;;;;;;;10.4;100.0;98320;;;;
2022/11/17 03:44:01;;;;;;;0.9;0.9;;;;;;;10.4;100.0;98320;;;;
2022/11/17 03:45:04;;;;;;;0.9;0.9;;;;;;;10.4;100.0;98320;;;;
2022/11/17 03:46:09;;;;;;;0.9;0.9;;;;;;;10.4;100.0;98320;;;;
2022/11/17 03:47:02;;;;;;;0.9;0.9;;;;;;;10.5;100.0;98310;;;;
2022/11/17 03:48:07;;;;;;;0.9;0.9;;;;;;;10.5;100.0;98310;;;;
2022/11/17 03:49:10;;;;;;;0.9;0.9;;;;;;;10.7;100.0;98300;;;;
2022/11/17 03:50:04;;;;;;;0.9;0.9;;;;;;;10.7;100.0;98300;;;;
2022/11/17 03:51:05;;;;;;;0.9;0.9;;;;;;;10.6;100.0;98310;;;;
2022/11/17 03:52:00;;;;;;;0.9;0.9;;;;;;;10.6;100.0;98310;;;;
2022/11/17 03:53:01;;;;;;;0.9;0.9;;;;;;;10.6;100.0;98300;;;;
2022/11/17 03:54:00;;;;;;;0.9;0.9;;;;;;;10.6;100.0;98300;;;;
2022/11/17 03:55:00;;;;;;;0.9;0.9;;;;;;;10.4;100.0;98300;;;;
2022/11/17 03:56:06;;;;;;;0.9;0.9;;;;;;;10.4;100.0;98300;;;;
2022/11/17 03:57:00;;;;;;;0.9;0.9;;;;;;;10.3;100.0;98310;;;;
2022/11/17 03:58:03;;;;;;;0.9;0.9;;;;;;;10.3;100.0;98310;;;;
2022/11/17 03:59:02;;;;;;;0.9;0.9;;;;;;;10.5;100.0;98300;;;;
2022/11/17 04:00:02;;;;;;;0.9;0.9;;;;;;;10.5;100.0;98300;;;;
2022/11/17 04:01:02;;;;;;;0.9;0.9;;;;;;;10.4;100.0;98300;;;;
2022/11/17 04:02:00;;;;;;;0.9;0.9;;;;;;;10.4;100.0;98300;;;;
2022/11/17 04:03:00;;;;;;;0.9;0.9;;;;;;;10.3;100.0;98290;;;;
2022/11/17 04:04:00;;;;;;;0.9;0.9;;;;;;;10.3;100.0;98290;;;;
2022/11/17 04:05:07;;;;;;;0.9;0.9;;;;;;;10.4;100.0;98300;;;;
2022/11/17 04:06:00;;;;;;;0.9;0.9;;;;;;;10.4;100.0;98300;;;;
2022/11/17 04:07:00;;;;;;;0.9;0.9;;;;;;;10.4;100.0;98290;;;;
2022/11/17 04:08:00;;;;;;;0.9;0.9;;;;;;;10.4;100.0;98290;;;;
2022/11/17 04:09:00;;;;;;;0.9;0.9;;;;;;;10.3;100.0;98290;;;;
2022/11/17 04:10:00;;;;;;;0.9;0.9;;;;;;;10.3;100.0;98290;;;;
2022/11/17 04:16:00;;;;;;;0.8;0.8;;;;;;;10.1;100.0;98290;;;;
2022/11/17 04:17:00;;;;;;;0.8;0.8;;;;;;;10.3;100.0;98290;;;;
2022/11/17 04:18:00;;;;;;;0.8;0.8;;;;;;;10.3;100.0;98290;;;;
2022/11/17 04:19:00;;;;;;;0.8;0.8;;;;;;;10.2;100.0;98290;;;;
2022/11/17 04:20:00;;;;;;;0.8;0.8;;;;;;;10.2;100.0;98290;;;;
2022/11/17 04:21:00;;;;;;;0.8;0.8;;;;;;;10.2;100.0;98290;;;;
2022/11/17 04:22:00;;;;;;;0.8;0.8;;;;;;;10.2;100.0;98290;;;;
2022/11/17 04:23:10;;;;;;;0.8;0.8;;;;;;;10.2;100.0;98280;;;;
2022/11/17 04:24:00;;;;;;;0.8;0.8;;;;;;;10.2;100.0;98280;;;;
2022/11/17 04:25:00;;;;;;;0.8;0.8;;;;;;;10.2;100.0;98290;;;;
2022/11/17 04:29:00;;;;;;;0.8;0.8;;;;;;;10.2;100.0;98280;;;;
2022/11/17 04:30:00;;;;;;;0.8;0.8;;;;;;;10.2;100.0;98280;;;;
2022/11/17 04:31:00;;;;;;;0.8;0.8;;;;;;;10.2;100.0;98270;;;;
2022/11/17 04:32:00;;;;;;;0.8;0.8;;;;;;;10.2;100.0;98270;;;;
2022/11/17 04:33:00;;;;;;;0.8;0.8;;;;;;;10.3;100.0;98270;;;;
2022/11/17 04:34:01;;;;;;;1.0;1.0;;;;;;;10.3;100.0;98270;;;;
2022/11/17 04:35:00;;;;;;;1.0;1.0;;;;;;;10.3;100.0;98270;;;;
2022/11/17 04:36:00;;;;;;;1.0;1.0;;;;;;;10.3;100.0;98270;;;;
2022/11/17 04:37:16;;;;;;;1.0;1.0;;;;;;;10.3;100.0;98270;;;;
2022/11/17 04:38:00;;;;;;;1.0;1.0;;;;;;;10.3;100.0;98270;;;;
2022/11/17 04:39:00;;;;;;;1.0;1.0;;;;;;;10.3;100.0;98260;;;;
2022/11/17 04:40:00;;;;;;;1.0;1.0;;;;;;;10.3;100.0;98260;;;;
2022/11/17 04:42:03;;;;;;;1.0;1.0;;;;;;;10.5;100.0;98260;;;;
2022/11/17 04:43:00;;;;;;;1.0;1.0;;;;;;;10.4;100.0;98260;;;;
2022/11/17 04:44:00;;;;;;;1.0;1.0;;;;;;;10.4;100.0;98260;;;;
2022/11/17 04:45:00;;;;;;;1.0;1.0;;;;;;;10.5;100.0;98260;;;;
2022/11/17 04:46:00;;;;;;;1.0;1.0;;;;;;;10.5;100.0;98260;;;;
2022/11/17 04:47:02;;;;;;;1.0;1.0;;;;;;;10.4;100.0;98260;;;;
2022/11/17 04:48:00;;;;;;;1.0;1.0;;;;;;;10.4;100.0;98260;;;;
2022/11/17 04:49:00;;;;;;;1.0;1.0;;;;;;;10.4;100.0;98250;;;;
2022/11/17 04:50:00;;;;;;;1.0;1.0;;;;;;;10.4;100.0;98250;;;;
2022/11/17 04:51:00;;;;;;;1.0;1.0;;;;;;;10.3;100.0;98240;;;;
2022/11/17 04:52:00;;;;;;;1.0;1.0;;;;;;;10.3;100.0;98240;;;;
2022/11/17 04:53:00;;;;;;;1.0;1.0;;;;;;;10.3;100.0;98240;;;;
2022/11/17 04:54:00;;;;;;;0.8;0.8;;;;;;;10.3;100.0;98240;;;;
2022/11/17 04:55:00;;;;;;;0.8;0.8;;;;;;;10.3;100.0;98240;;;;
2022/11/17 04:56:00;;;;;;;0.8;0.8;;;;;;;10.3;100.0;98240;;;;
2022/11/17 04:57:00;;;;;;;0.8;0.8;;;;;;;10.4;100.0;98250;;;;
2022/11/17 04:58:00;;;;;;;0.8;0.8;;;;;;;10.4;100.0;98250;;;;
2022/11/17 04:59:00;;;;;;;0.8;0.8;;;;;;;10.4;100.0;98240;;;;
2022/11/17 05:00:00;;;;;;;0.8;0.8;;;;;;;10.4;100.0;98240;;;;
2022/11/17 05:01:11;;;;;;;0.8;0.8;;;;;;;10.6;100.0;98260;;;;
2022/11/17 05:02:06;;;;;;;0.8;0.8;;;;;;;10.6;100.0;98260;;;;
2022/11/17 05:03:00;;;;;;;0.8;0.8;;;;;;;10.6;100.0;98270;;;;
2022/11/17 05:04:01;;;;;;;0.8;0.8;;;;;;;10.6;100.0;98270;;;;
2022/11/17 05:05:00;;;;;;;0.8;0.8;;;;;;;10.6;100.0;98260;;;;
2022/11/17 05:06:00;;;;;;;0.8;0.8;;;;;;;10.6;100.0;98260;;;;
2022/11/17 05:07:00;;;;;;;0.8;0.8;;;;;;;10.6;100.0;98260;;;;
2022/11/17 05:08:00;;;;;;;0.8;0.8;;;;;;;10.6;100.0;98260;;;;
2022/11/17 05:09:02;;;;;;;0.8;0.8;;;;;;;10.6;100.0;98260;;;;
2022/11/17 05:10:00;;;;;;;0.8;0.8;;;;;;;10.6;100.0;98260;;;;
2022/11/17 05:14:00;;;;;;;0.9;0.9;;;;;;;10.6;100.0;98250;;;;
2022/11/17 05:15:00;;;;;;;0.9;0.9;;;;;;;10.6;100.0;98250;;;;
2022/11/17 05:17:08;;;;;;;0.9;0.9;;;;;;;10.5;100.0;98240;;;;
2022/11/17 05:18:00;;;;;;;0.9;0.9;;;;;;;10.5;100.0;98240;;;;
2022/11/17 05:19:00;;;;;;;0.9;0.9;;;;;;;10.5;100.0;98240;;;;
2022/11/17 05:20:00;;;;;;;0.9;0.9;;;;;;;10.5;100.0;98240;;;;
2022/11/17 05:21:01;;;;;;;0.9;0.9;;;;;;;10.6;100.0;98240;;;;
2022/11/17 05:22:00;;;;;;;0.9;0.9;;;;;;;10.6;100.0;98240;;;;
2022/11/17 05:24:00;;;;;;;0.9;0.9;;;;;;;10.6;100.0;98240;;;;
2022/11/17 05:25:00;;;;;;;0.9;0.9;;;;;;;10.7;100.0;98230;;;;
2022/11/17 05:26:00;;;;;;;0.9;0.9;;;;;;;10.7;100.0;98230;;;;
2022/11/17 05:27:00;;;;;;;0.9;0.9;;;;;;;10.6;100.0;98230;;;;
2022/11/17 05:28:00;;;;;;;0.9;0.9;;;;;;;10.6;100.0;98230;;;;
2022/11/17 05:29:01;;;;;;;0.9;0.9;;;;;;;10.7;100.0;98230;;;;
2022/11/17 05:30:01;;;;;;;0.9;0.9;;;;;;;10.7;100.0;98230;;;;
2022/11/17 05:31:00;;;;;;;0.9;0.9;;;;;;;10.6;100.0;98250;;;;
2022/11/17 05:32:00;;;;;;;0.9;0.9;;;;;;;10.6;100.0;98250;;;;
2022/11/17 05:33:00;;;;;;;0.9;0.9;;;;;;;10.6;100.0;98240;;;;
2022/11/17 05:34:00;;;;;;;0.9;0.9;;;;;;;10.6;100.0;98240;;;;
2022/11/17 05:35:00;;;;;;;0.9;0.9;;;;;;;10.7;100.0;98250;;;;
2022/11/17 05:36:00;;;;;;;0.9;0.9;;;;;;;10.7;100.0;98250;;;;
2022/11/17 05:37:00;;;;;;;0.9;0.9;;;;;;;10.7;100.0;98240;;;;
2022/11/17 05:38:00;;;;;;;0.9;0.9;;;;;;;10.7;100.0;98240;;;;
2022/11/17 05:39:00;;;;;;;0.9;0.9;;;;;;;10.7;100.0;98240;;;;
2022/11/17 05:40:00;;;;;;;0.9;0.9;;;;;;;10.7;100.0;98240;;;;
2022/11/17 05:41:00;;;;;;;0.9;0.9;;;;;;;10.7;100.0;98250;;;;
2022/11/17 05:42:00;;;;;;;0.9;0.9;;;;;;;10.7;100.0;98250;;;;
2022/11/17 05:43:00;;;;;;;0.9;0.9;;;;;;;10.7;100.0;98250;;;;
2022/11/17 05:44:00;;;;;;;0.9;0.9;;;;;;;10.7;100.0;98250;;;;
2022/11/17 05:45:00;;;;;;;0.9;0.9;;;;;;;10.7;100.0;98260;;;;
2022/11/17 05:46:00;;;;;;;0.9;0.9;;;;;;;10.7;100.0;98260;;;;
2022/11/17 05:47:00;;;;;;;0.9;0.9;;;;;;;10.6;100.0;98250;;;;
2022/11/17 05:48:00;;;;;;;0.9;0.9;;;;;;;10.6;100.0;98250;;;;
2022/11/17 05:49:00;;;;;;;0.9;0.9;;;;;;;10.7;100.0;98270;;;;
2022/11/17 05:50:00;;;;;;;0.9;0.9;;;;;;;10.7;100.0;98270;;;;
2022/11/17 05:51:00;;;;;;;0.9;0.9;;;;;;;10.8;100.0;98270;;;;
2022/11/17 05:52:00;;;;;;;0.9;0.9;;;;;;;10.8;100.0;98270;;;;
2022/11/17 05:53:00;;;;;;;0.9;0.9;;;;;;;10.7;100.0;98280;;;;
2022/11/17 05:54:00;;;;;;;0.9;0.9;;;;;;;10.7;100.0;98280;;;;
2022/11/17 05:55:00;;;;;;;0.9;0.9;;;;;;;10.9;100.0;98270;;;;
2022/11/17 05:56:07;;;;;;;0.9;0.9;;;;;;;10.9;100.0;98270;;;;
2022/11/17 05:57:00;;;;;;;0.9;0.9;;;;;;;10.9;100.0;98270;;;;
2022/11/17 05:58:02;;;;;;;0.9;0.9;;;;;;;10.9;100.0;98270;;;;
2022/11/17 05:59:10;;;;;;;0.9;0.9;;;;;;;10.9;100.0;98280;;;;
2022/11/17 06:00:03;;;;;;;0.9;0.9;;;;;;;10.9;100.0;98280;;;;
2022/11/17 06:01:00;;;;;;;0.9;0.9;;;;;;;11.0;100.0;98280;;;;
2022/11/17 06:02:04;;;;;;;0.9;0.9;;;;;;;11.0;100.0;98280;;;;
2022/11/17 06:03:04;;;;;;;0.9;0.9;;;;;;;10.9;100.0;98280;;;;
2022/11/17 06:04:02;;;;;;;0.9;0.9;;;;;;;10.9;100.0;98280;;;;
2022/11/17 06:05:01;;;;;;;0.9;0.9;;;;;;;11.0;100.0;98280;;;;
2022/11/17 06:06:00;;;;;;;0.9;0.9;;;;;;;11.0;100.0;98280;;;;
2022/11/17 06:07:00;;;;;;;0.9;0.9;;;;;;;11.0;100.0;98280;;;;
2022/11/17 06:08:00;;;;;;;0.9;0.9;;;;;;;11.0;100.0;98280;;;;
2022/11/17 06:09:00;;;;;;;0.9;0.9;;;;;;;10.9;100.0;98280;;;;
2022/11/17 06:10:00;;;;;;;0.9;0.9;;;;;;;10.9;100.0;98280;;;;
2022/11/17 06:11:00;;;;;;;0.9;0.9;;;;;;;11.0;100.0;98280;;;;
2022/11/17 06:12:06;;;;;;;0.9;0.9;;;;;;;11.0;100.0;98280;;;;
2022/11/17 06:13:00;;;;;;;0.9;0.9;;;;;;;11.0;100.0;98290;;;;
2022/11/17 06:14:00;;;;;;;0.9;0.9;;;;;;;11.0;100.0;98290;;;;
2022/11/17 06:15:00;;;;;;;0.9;0.9;;;;;;;10.9;100.0;98280;;;;
2022/11/17 06:16:03;;;;;;;0.9;0.9;;;;;;;10.9;100.0;98280;;;;
2022/11/17 06:17:02;;;;;;;0.9;0.9;;;;;;;10.9;100.0;98280;;;;
2022/11/17 06:18:02;;;;;;;0.9;0.9;;;;;;;10.9;100.0;98280;;;;
2022/11/17 06:19:03;;;;;;;0.9;0.9;;;;;;;10.9;100.0;98280;;;;
2022/11/17 06:20:02;;;;;;;0.9;0.9;;;;;;;10.9;100.0;98280;;;;
2022/11/17 06:21:00;;;;;;;0.9;0.9;;;;;;;10.9;100.0;98290;;;;
2022/11/17 06:22:10;;;;;;;0.9;0.9;;;;;;;10.9;100.0;98290;;;;
2022/11/17 06:23:02;;;;;;;0.9;0.9;;;;;;;10.9;100.0;98290;;;;
2022/11/17 06:24:00;;;;;;;0.9;0.9;;;;;;;10.9;100.0;98290;;;;
2022/11/17 06:25:02;;;;;;;0.9;0.9;;;;;;;10.9;100.0;98290;;;;
2022/11/17 06:26:01;;;;;;;0.9;0.9;;;;;;;10.9;100.0;98290;;;;
2022/11/17 06:27:00;;;;;;;0.9;0.9;;;;;;;10.9;100.0;98290;;;;
2022/11/17 06:28:02;;;;;;;0.9;0.9;;;;;;;10.9;100.0;98290;;;;
2022/11/17 06:29:01;;;;;;;0.9;0.9;;;;;;;10.9;100.0;98290;;;;
2022/11/17 06:30:02;;;;;;;0.9;0.9;;;;;;;10.9;100.0;98290;;;;
2022/11/17 06:31:00;;;;;;;0.9;0.9;;;;;;;10.9;100.0;98290;;;;
2022/11/17 06:32:00;;;;;;;0.9;0.9;;;;;;;10.9;100.0;98290;;;;
2022/11/17 06:33:01;;;;;;;0.9;0.9;;;;;;;11.1;100.0;98290;;;;
2022/11/17 06:34:01;;;;;;;0.8;0.8;;;;;;;11.1;100.0;98290;;;;
2022/11/17 06:35:02;;;;;;;0.8;0.8;;;;;;;11.0;100.0;98290;;;;
2022/11/17 06:36:01;;;;;;;0.8;0.8;;;;;;;11.0;100.0;98290;;;;
2022/11/17 06:37:00;;;;;;;0.8;0.8;;;;;;;11.0;100.0;98290;;;;
2022/11/17 06:38:00;;;;;;;0.8;0.8;;;;;;;11.0;100.0;98290;;;;
2022/11/17 06:39:00;;;;;;;0.8;0.8;;;;;;;10.8;100.0;98300;;;;
2022/11/17 06:40:00;;;;;;;0.8;0.8;;;;;;;10.8;100.0;98300;;;;
2022/11/17 06:41:00;;;;;;;0.8;0.8;;;;;;;10.6;100.0;98300;;;;
2022/11/17 06:42:00;;;;;;;0.8;0.8;;;;;;;10.6;100.0;98300;;;;
2022/11/17 06:43:07;;;;;;;0.8;0.8;;;;;;;10.8;100.0;98310;;;;
2022/11/17 06:44:00;;;;;;;0.8;0.8;;;;;;;10.8;100.0;98310;;;;
2022/11/17 06:45:00;;;;;;;0.8;0.8;;;;;;;10.7;100.0;98310;;;;
2022/11/17 06:46:01;;;;;;;0.8;0.8;;;;;;;10.7;100.0;98310;;;;
2022/11/17 06:47:00;;;;;;;0.8;0.8;;;;;;;10.8;100.0;98300;;;;
2022/11/17 06:48:00;;;;;;;0.8;0.8;;;;;;;10.8;100.0;98300;;;;
2022/11/17 06:49:00;;;;;;;0.8;0.8;;;;;;;10.7;100.0;98300;;;;
2022/11/17 06:50:00;;;;;;;0.8;0.8;;;;;;;10.7;100.0;98300;;;;
2022/11/17 06:51:01;;;;;;;0.8;0.8;;;;;;;10.7;100.0;98310;;;;
2022/11/17 06:52:00;;;;;;;0.8;0.8;;;;;;;10.7;100.0;98310;;;;
2022/11/17 06:53:01;;;;;;;0.8;0.8;;;;;;;10.6;100.0;98310;;;;
2022/11/17 06:54:00;;;;;;;0.8;0.8;;;;;;;10.6;100.0;98310;;;;
2022/11/17 06:55:00;;;;;;;0.8;0.8;;;;;;;10.7;100.0;98310;;;;
2022/11/17 06:56:08;;;;;;;0.8;0.8;;;;;;;10.7;100.0;98310;;;;